Latest Weather Observations for Fitzroy Crossing

IDW60801

Issued at 10:03 pm WST Wednesday 8 July 2020 (issued every 10 minutes, with the page automatically refreshed every 10 minutes)

About weather observations | Map of weather stations | Latest weather observations for WA | Other Formats
Station Details ID: 003093 Name: FITZROY CROSSING AERO Lat: -18.18 Lon: 125.56 Height: 114.5 m
Data from the previous 72 hours. | See also: Recent months at Fitzroy Crossing
Date/Time
WST
Temp
°C
App
Temp
°C
Dew
Point
°C
Rel
Hum
%
Delta-T
°C
Wind Press
QNH
hPa
Press
MSL
hPa
Rain since
9am
mm
Dir  Spd
km/h
Gust
km/h
Spd
kts
Gust
kts
08/10:00pm 19.2 17.4 1.2 30 8.1 CALM 0 0 0 0 1014.7 1014.3 0.0
08/09:30pm 18.8 17.1 1.8 32 7.8 CALM 0 0 0 0 1014.8 1014.4 0.0
08/09:00pm 20.4 17.2 0.8 27 8.9 E 7 7 4 4 1014.8 1014.4 0.0
08/08:30pm 21.1 17.5 0.9 26 9.2 ESE 9 11 5 6 1014.4 1014.0 0.0
08/08:00pm 21.3 17.6 2.1 28 9.0 ESE 11 13 6 7 1014.3 1013.9 0.0
08/07:30pm 21.0 17.8 3.2 31 8.5 SE 9 11 5 6 1014.3 1013.9 0.0
08/07:00pm 22.2 18.9 2.3 27 9.4 SE 9 11 5 6 1014.1 1013.7 0.0
08/06:30pm 22.7 19.8 4.7 31 8.9 SE 9 11 5 6 1013.5 1013.1 0.0
08/06:00pm 23.8 20.4 4.2 28 9.7 SE 11 13 6 7 1013.5 1013.1 0.0
08/05:30pm 24.7 21.8 4.5 27 10.1 SE 9 11 5 6 1013.2 1012.8 0.0
08/05:00pm 26.1 23.3 3.4 23 11.3 ESE 7 7 4 4 1013.1 1012.7 0.0
08/04:30pm 28.3 25.1 0.9 17 13.2 ESE 7 9 4 5 1012.9 1012.5 0.0
08/04:00pm 29.3 25.2 -3.0 12 14.6 E 9 13 5 7 1013.1 1012.7 0.0
08/03:30pm 30.6 26.0 -4.4 10 15.6 E 11 17 6 9 1013.1 1012.7 0.0
08/03:00pm 29.9 24.2 -3.7 11 15.1 E 17 26 9 14 1013.1 1012.7 0.0
08/02:30pm 31.0 26.3 -1.7 12 15.3 ENE 13 17 7 9 1013.1 1012.7 0.0
08/02:00pm 30.3 25.4 -3.4 11 15.3 ENE 13 19 7 10 1013.4 1013.0 0.0
08/01:30pm 30.0 24.8 -2.5 12 14.9 ESE 15 22 8 12 1013.9 1013.5 0.0
08/01:00pm 30.3 25.2 -2.2 12 15.0 E 15 24 8 13 1014.3 1013.9 0.0
08/12:30pm 29.0 23.9 -2.2 13 14.3 E 15 24 8 13 1014.9 1014.5 0.0
08/12:00pm 28.7 23.7 -1.4 14 13.9 E 15 22 8 12 1015.5 1015.1 0.0
08/11:30am 28.4 23.1 -0.7 15 13.6 E 17 24 9 13 1016.0 1015.6 0.0
08/11:00am 27.8 21.8 -1.2 15 13.4 ENE 20 30 11 16 1016.4 1016.0 0.0
08/10:30am 27.0 21.1 -0.9 16 12.9 E 20 30 11 16 1017.0 1016.6 0.0
08/10:00am 25.4 19.0 -1.4 17 12.1 ENE 22 30 12 16 1017.3 1016.9 0.0
08/09:30am 24.9 19.7 0.4 20 11.4 ENE 17 32 9 17 1017.5 1017.1 0.0
08/09:00am 23.0 18.4 1.4 24 10.1 E 15 24 8 13 1017.8 1017.4 0.0
08/08:30am 21.5 17.4 0.1 24 9.6 ENE 11 17 6 9 1018.1 1017.7 0.0
08/08:00am 19.0 15.9 0.1 28 8.3 NE 6 11 3 6 1018.3 1017.9 0.0
08/07:30am 16.3 14.4 0.8 35 6.8 CALM 0 6 0 3 1017.7 1017.3 0.0
08/07:00am 12.6 10.9 1.9 48 4.6 CALM 0 0 0 0 1017.6 1017.2 0.0
08/06:30am 10.0 8.1 0.6 52 3.9 CALM 0 0 0 0 1017.4 1017.0 0.0
08/06:00am 10.0 8.2 1.1 54 3.7 CALM 0 0 0 0 1017.1 1016.7 0.0
08/05:30am 9.8 7.9 0.7 53 3.7 CALM 0 0 0 0 1016.9 1016.5 0.0
08/05:00am 11.4 9.5 0.5 47 4.5 CALM 0 0 0 0 1016.4 1016.0 0.0
08/04:30am 10.6 8.8 1.4 53 3.9 CALM 0 0 0 0 1016.5 1016.1 0.0
08/04:00am 11.4 9.5 0.5 47 4.5 CALM 0 0 0 0 1016.3 1015.9 0.0
08/03:30am 10.9 9.1 0.9 50 4.2 CALM 0 0 0 0 1016.3 1015.9 0.0
08/03:00am 11.2 8.7 1.5 51 4.1 ENE 4 7 2 4 1016.3 1015.9 0.0
08/02:30am 11.0 8.7 0.1 47 4.5 ENE 2 6 1 3 1016.3 1015.9 0.0
08/02:00am 11.4 8.3 0.2 46 4.6 N 6 7 3 4 1016.4 1016.0 0.0
08/01:30am 11.3 8.0 -1.1 42 5.0 N 6 7 3 4 1016.4 1016.0 0.0
08/01:00am 12.2 10.0 0.9 46 4.8 E 2 9 1 5 1016.5 1016.1 0.0
08/12:30am 12.1 10.1 -0.1 43 5.0 CALM 0 0 0 0 1016.7 1016.3 0.0
08/12:00am 12.4 10.6 1.1 46 4.8 CALM 0 0 0 0 1016.8 1016.4 0.0
 
Date/Time
WST
Temp
°C
App
Temp
°C
Dew
Point
°C
Rel
Hum
%
Delta-T
°C
Wind Press
QNH
hPa
Press
MSL
hPa
Rain since
9am
mm
Dir  Spd
km/h
Gust
km/h
Spd
kts
Gust
kts
07/11:30pm 12.6 10.6 0.0 42 5.2 CALM 0 6 0 3 1016.8 1016.4 0.0
07/11:00pm 14.7 11.5 0.9 39 6.0 ESE 7 9 4 5 1016.7 1016.3 0.0
07/10:30pm 14.7 12.7 -0.2 36 6.3 CALM 0 0 0 0 1016.9 1016.5 0.0
07/10:00pm 14.7 12.7 -0.2 36 6.3 CALM 0 0 0 0 1016.9 1016.5 0.0
07/09:30pm 15.1 13.3 0.9 38 6.2 CALM 0 6 0 3 1016.8 1016.4 0.0
07/09:00pm 15.7 12.9 2.2 40 6.0 ESE 6 7 3 4 1016.7 1016.3 0.0
07/08:30pm 16.8 13.6 0.9 34 7.0 SE 7 9 4 5 1016.8 1016.4 0.0
07/08:00pm 18.3 14.7 0.4 30 7.9 SE 9 11 5 6 1016.4 1016.0 0.0
07/07:30pm 19.0 15.0 0.6 29 8.2 SE 11 11 6 6 1016.4 1016.0 0.0
07/07:00pm 20.4 16.7 -0.3 25 9.2 SSE 9 11 5 6 1016.3 1015.9 0.0
07/06:30pm 20.9 17.2 0.2 25 9.3 SE 9 11 5 6 1015.8 1015.4 0.0
07/06:00pm 22.2 18.5 0.1 23 10.0 SE 9 9 5 5 1015.6 1015.2 0.0
07/05:30pm 23.0 19.7 0.2 22 10.4 SE 7 9 4 5 1015.6 1015.2 0.0
07/05:00pm 25.8 22.3 -1.1 17 12.3 E 7 9 4 5 1015.3 1014.9 0.0
07/04:30pm 27.7 23.6 -3.2 13 13.8 E 9 11 5 6 1015.0 1014.6 0.0
07/04:00pm 28.6 23.7 -3.6 12 14.3 E 13 19 7 10 1015.1 1014.7 0.0
07/03:30pm 28.8 23.3 -5.8 10 14.9 E 15 22 8 12 1015.1 1014.7 0.0
07/03:00pm 29.1 24.3 -5.6 10 15.0 E 11 19 6 10 1015.1 1014.7 0.0
07/02:30pm 29.2 23.4 -4.3 11 14.8 E 17 24 9 13 1015.1 1014.7 0.0
07/02:00pm 28.8 22.6 -4.6 11 14.6 E 19 30 10 16 1015.1 1014.7 0.0
07/01:30pm 28.3 21.9 -4.9 11 14.4 E 20 28 11 15 1015.5 1015.1 0.0
07/01:00pm 27.8 21.5 -4.2 12 14.0 E 20 37 11 20 1015.9 1015.5 0.0
07/12:30pm 28.0 21.3 -4.0 12 14.1 E 22 33 12 18 1016.5 1016.1 0.0
07/12:00pm 27.3 21.2 -2.5 14 13.4 ENE 20 32 11 17 1017.1 1016.7 0.0
07/11:30am 26.6 19.6 -3.1 14 13.1 ENE 24 39 13 21 1017.5 1017.1 0.0
07/11:00am 26.3 19.4 -2.4 15 12.8 ENE 24 33 13 18 1018.1 1017.7 0.0
07/10:30am 25.8 19.0 -1.9 16 12.4 ENE 24 35 13 19 1018.6 1018.2 0.0
07/10:00am 24.9 18.5 -1.8 17 11.9 E 22 33 12 18 1019.0 1018.6 0.0
07/09:30am 23.7 16.9 -2.0 18 11.3 E 24 39 13 21 1019.5 1019.1 0.0
07/09:00am 21.9 16.7 0.4 24 9.7 E 17 28 9 15 1019.8 1019.4 0.0
07/08:30am 19.9 16.0 0.9 28 8.6 E 11 15 6 8 1019.9 1019.5 0.0
07/08:00am 17.9 14.0 1.0 32 7.5 E 11 15 6 8 1019.9 1019.5 0.0
07/07:30am 16.0 12.7 0.2 34 6.8 ESE 7 11 4 6 1019.7 1019.3 0.0
07/07:00am 13.4 11.7 1.7 45 5.1 CALM 0 6 0 3 1019.5 1019.1 0.0
07/06:30am 11.6 8.5 1.3 49 4.4 ESE 7 9 4 5 1019.2 1018.8 0.0
07/06:00am 10.8 7.8 1.1 51 4.0 ESE 6 7 3 4 1018.9 1018.5 0.0
07/05:30am 10.8 7.9 1.6 53 3.9 SE 6 7 3 4 1018.7 1018.3 0.0
07/05:00am 11.2 7.7 1.5 51 4.1 SE 9 9 5 5 1018.4 1018.0 0.0
07/04:30am 11.6 8.6 1.8 51 4.2 SE 7 9 4 5 1018.1 1017.7 0.0
07/04:00am 11.5 9.7 1.5 50 4.2 CALM 0 0 0 0 1018.0 1017.6 0.0
07/03:30am 10.7 9.0 2.0 55 3.7 CALM 0 0 0 0 1018.1 1017.7 0.0
07/03:00am 10.6 9.0 2.2 56 3.6 CALM 0 0 0 0 1018.2 1017.8 0.0
07/02:30am 11.9 9.0 1.5 49 4.4 ESE 6 6 3 3 1018.1 1017.7 0.0
07/02:00am 12.1 10.3 1.4 48 4.6 CALM 0 0 0 0 1018.1 1017.7 0.0
07/01:30am 13.2 10.1 1.5 45 5.1 SE 7 7 4 4 1018.0 1017.6 0.0
07/01:00am 13.3 10.4 1.3 44 5.1 SE 6 11 3 6 1018.1 1017.7 0.0
07/12:30am 13.6 10.7 1.3 43 5.3 SSE 6 7 3 4 1018.2 1017.8 0.0
07/12:00am 13.7 12.0 1.7 44 5.2 CALM 0 0 0 0 1018.2 1017.8 0.0
 
Date/Time
WST
Temp
°C
App
Temp
°C
Dew
Point
°C
Rel
Hum
%
Delta-T
°C
Wind Press
QNH
hPa
Press
MSL
hPa
Rain since
9am
mm
Dir  Spd
km/h
Gust
km/h
Spd
kts
Gust
kts
06/11:30pm 14.0 11.2 2.0 44 5.3 SSE 6 6 3 3 1018.2 1017.8 0.0
06/11:00pm 14.4 11.3 1.3 41 5.7 S 7 9 4 5 1018.3 1017.9 0.0
06/10:30pm 15.3 11.8 1.4 39 6.1 SSE 9 9 5 5 1018.3 1017.9 0.0
06/10:00pm 15.4 12.3 1.2 38 6.2 SE 7 9 4 5 1018.3 1017.9 0.0
06/09:30pm 16.7 13.1 0.8 34 7.0 SE 9 11 5 6 1018.0 1017.6 0.0
06/09:00pm 17.0 13.1 1.0 34 7.1 SE 11 11 6 6 1018.1 1017.7 0.0
06/08:30pm 17.9 13.9 0.6 31 7.6 SE 11 13 6 7 1018.0 1017.6 0.0
06/08:00pm 18.3 14.4 0.9 31 7.7 SE 11 13 6 7 1018.0 1017.6 0.0
06/07:30pm 19.1 15.2 1.1 30 8.1 SE 11 13 6 7 1018.0 1017.6 0.0
06/07:00pm 19.4 15.6 1.9 31 8.0 SE 11 13 6 7 1017.9 1017.5 0.0
06/06:30pm 20.0 16.5 3.3 33 7.9 SE 11 13 6 7 1017.6 1017.2 0.0
06/06:00pm 21.3 17.9 2.1 28 9.0 SE 9 11 5 6 1017.3 1016.9 0.0
06/05:30pm 22.6 19.2 2.1 26 9.7 SE 9 11 5 6 1017.0 1016.6 0.0
06/05:00pm 25.0 22.1 2.4 23 10.9 SE 7 11 4 6 1016.7 1016.3 0.0
06/04:30pm 27.0 23.8 0.7 18 12.5 ESE 7 11 4 6 1016.5 1016.1 0.0
06/04:00pm 27.7 23.6 -0.4 16 13.2 E 11 19 6 10 1016.1 1015.7 0.0
06/03:30pm 28.1 23.6 -0.1 16 13.3 ESE 13 17 7 9 1015.9 1015.5 0.0
06/03:00pm 28.7 23.8 -0.5 15 13.7 ENE 15 24 8 13 1015.9 1015.5 0.0
06/02:30pm 27.8 22.4 -1.2 15 13.4 E 17 24 9 13 1015.9 1015.5 0.0
06/02:00pm 27.9 22.5 -1.1 15 13.4 E 17 24 9 13 1016.1 1015.7 0.0
06/01:30pm 28.5 23.7 0.3 16 13.5 E 15 20 8 11 1016.4 1016.0 0.0
06/01:00pm 27.8 21.8 -1.2 15 13.4 ENE 20 30 11 16 1016.8 1016.4 0.0
06/12:30pm 27.0 21.3 -0.9 16 12.9 E 19 26 10 14 1017.1 1016.7 0.0
06/12:00pm 26.8 20.9 -1.1 16 12.8 ENE 20 32 11 17 1017.5 1017.1 0.0
06/11:30am 26.4 19.4 -0.6 17 12.5 ENE 26 35 14 19 1017.9 1017.5 0.0
06/11:00am 25.8 18.7 -1.1 17 12.2 ENE 26 35 14 19 1018.6 1018.2 0.0
06/10:30am 25.3 18.4 0.0 19 11.7 ENE 26 35 14 19 1019.0 1018.6 0.0
06/10:00am 24.7 19.2 0.3 20 11.3 E 19 28 10 15 1019.6 1019.2 0.0
06/09:30am 23.4 17.2 -0.1 21 10.7 E 22 33 12 18 1019.7 1019.3 0.0
06/09:00am 21.9 17.2 1.0 25 9.6 E 15 26 8 14 1020.2 1019.8 0.0
06/08:30am 20.9 17.0 1.2 27 9.0 E 11 17 6 9 1020.3 1019.9 0.0
06/08:00am 18.7 15.7 1.7 32 7.7 ESE 7 11 4 6 1020.1 1019.7 0.0
06/07:30am 16.2 12.7 1.1 36 6.6 E 9 13 5 7 1019.7 1019.3 0.0
06/07:00am 14.3 11.4 1.2 41 5.7 SE 6 9 3 5 1019.8 1019.4 0.0
06/06:30am 11.7 8.2 1.1 48 4.5 SE 9 11 5 6 1019.4 1019.0 0.0
06/06:00am 11.1 7.2 1.1 50 4.2 SE 11 13 6 7 1019.2 1018.8 0.0
06/05:30am 9.8 7.7 1.9 58 3.3 NNE 2 7 1 4 1018.9 1018.5 0.0
06/05:00am 10.0 7.4 1.1 54 3.7 ENE 4 9 2 5 1018.4 1018.0 0.0
06/04:30am 12.9 8.9 0.3 42 5.3 ESE 11 13 6 7 1018.2 1017.8 0.0
06/04:00am 13.2 9.6 0.3 41 5.4 ESE 9 13 5 7 1017.9 1017.5 0.0
06/03:30am 13.8 10.1 0.1 39 5.8 ESE 9 11 5 6 1017.9 1017.5 0.0
06/03:00am 14.5 10.8 0.0 37 6.1 ESE 9 13 5 7 1017.9 1017.5 0.0
06/02:30am 14.9 10.9 0.7 38 6.1 ESE 11 19 6 10 1017.7 1017.3 0.0
06/02:00am 14.3 10.7 0.6 39 5.8 ESE 9 11 5 6 1017.7 1017.3 0.0
06/01:30am 15.1 11.5 0.5 37 6.3 ESE 9 13 5 7 1017.8 1017.4 0.0
06/01:00am 16.2 11.9 1.1 36 6.6 ESE 13 17 7 9 1018.0 1017.6 0.0
06/12:30am 16.4 12.1 1.3 36 6.7 ESE 13 15 7 8 1018.0 1017.6 0.0
06/12:00am 17.2 13.0 1.6 35 7.0 ESE 13 17 7 9 1017.9 1017.5 0.0
 
Date/Time
WST
Temp
°C
App
Temp
°C
Dew
Point
°C
Rel
Hum
%
Delta-T
°C
Wind Press
QNH
hPa
Press
MSL
hPa
Rain since
9am
mm
Dir  Spd
km/h
Gust
km/h
Spd
kts
Gust
kts
05/11:30pm 17.6 13.1 2.0 35 7.1 ESE 15 17 8 9 1017.8 1017.4 0.0
05/11:00pm 18.3 14.2 2.2 34 7.4 ESE 13 17 7 9 1017.9 1017.5 0.0
05/10:30pm 18.9 14.9 2.7 34 7.5 ESE 13 15 7 8 1018.0 1017.6 0.0

Other formats

Comma delimited format used in spreadsheet applications
http://www.bom.gov.au/fwo/IDW60801/IDW60801.94206.axf

JavaScript Object Notation format (JSON) in row-major order
http://www.bom.gov.au/fwo/IDW60801/IDW60801.94206.json

Data quality

Most of these data are generated automatically and are frequently updated. Quality checks on data are not normally performed. It is possible for incorrect values to appear. Refer to information at About Latest Weather Observations and please check the disclaimer before using these data.